Time;durP1;ratioP1;P1;durP2;ratioP2;P2;SDS_P1;SDS_P2;PMS_P1;PMS_P2;Temp;Humidity;BMP_temperature;BMP_pressure;BME280_temperature;BME280_humidity;BME280_pressure;Samples;Min_cycle;Max_cycle;Signal;HPM_P1;HPM_P2
2022/05/28 00:00:01;;;;;;;4.17;2.00;;;18.90;99.90;;;;;;1043206;28;20094;-66
2022/05/28 00:00:31;;;;;;;2.73;1.30;;;18.90;99.90;;;;;;1043132;28;20017;-66
2022/05/28 00:01:04;;;;;;;3.17;1.57;;;18.90;99.90;;;;;;1043255;28;20082;-67
2022/05/28 00:01:34;;;;;;;4.95;1.80;;;18.90;99.90;;;;;;1043087;28;20076;-66
2022/05/28 00:02:05;;;;;;;3.90;1.60;;;18.90;99.90;;;;;;1043267;28;20215;-66
2022/05/28 00:02:36;;;;;;;5.40;1.67;;;18.90;99.90;;;;;;1042433;28;20122;-66
2022/05/28 00:03:06;;;;;;;3.77;1.33;;;18.90;99.90;;;;;;1042935;28;20027;-67
2022/05/28 00:03:38;;;;;;;1.77;1.00;;;18.90;99.90;;;;;;1042742;28;20017;-67
2022/05/28 00:04:08;;;;;;;4.68;1.92;;;18.90;99.90;;;;;;1042759;28;20175;-66
2022/05/28 00:04:39;;;;;;;4.50;1.90;;;18.90;99.90;;;;;;1042696;28;20082;-66
2022/05/28 00:05:09;;;;;;;3.37;1.60;;;18.90;99.90;;;;;;1042788;28;20044;-67
2022/05/28 00:05:41;;;;;;;4.13;1.93;;;18.90;99.90;;;;;;1042898;28;20074;-66
2022/05/28 00:06:13;;;;;;;3.50;1.67;;;18.90;99.90;;;;;;1043315;28;20028;-67
2022/05/28 00:06:45;;;;;;;4.78;2.08;;;18.90;99.90;;;;;;1042946;28;20468;-66
2022/05/28 00:07:15;;;;;;;5.47;2.10;;;18.90;99.90;;;;;;1043091;28;20191;-66
2022/05/28 00:07:46;;;;;;;6.10;1.97;;;18.90;99.90;;;;;;1042934;28;20056;-66
2022/05/28 00:08:17;;;;;;;3.95;1.65;;;18.90;99.90;;;;;;1043186;28;20384;-67
2022/05/28 00:08:48;;;;;;;2.87;1.27;;;18.90;99.90;;;;;;1042538;28;20575;-66
2022/05/28 00:09:19;;;;;;;5.03;1.88;;;18.90;99.90;;;;;;1042755;28;20033;-66
2022/05/28 00:09:49;;;;;;;2.77;1.60;;;18.90;99.90;;;;;;1042541;28;20012;-66
2022/05/28 00:10:20;;;;;;;4.03;1.80;;;18.90;99.90;;;;;;1042788;28;20024;-67
2022/05/28 00:10:55;;;;;;;3.60;1.60;;;18.90;99.90;;;;;;1043015;28;20017;-67
2022/05/28 00:11:32;;;;;;;3.67;1.85;;;18.90;99.90;;;;;;1043044;28;20025;-67
2022/05/28 00:12:03;;;;;;;4.32;1.77;;;18.90;99.90;;;;;;1042910;28;20438;-67
2022/05/28 00:12:35;;;;;;;4.88;1.70;;;18.90;99.90;;;;;;1043324;28;20468;-67
2022/05/28 00:13:06;;;;;;;3.15;1.50;;;18.90;99.90;;;;;;1042748;28;20017;-67
2022/05/28 00:13:36;;;;;;;4.03;1.75;;;18.90;99.90;;;;;;1043331;28;20013;-67
2022/05/28 00:14:08;;;;;;;3.50;1.63;;;18.90;99.90;;;;;;1042886;28;20144;-68
2022/05/28 00:14:39;;;;;;;3.13;1.42;;;18.90;99.90;;;;;;1043069;28;20017;-67
2022/05/28 00:15:10;;;;;;;3.88;1.90;;;18.80;99.90;;;;;;1042919;28;20017;-67
2022/05/28 00:15:43;;;;;;;3.67;1.60;;;18.80;99.90;;;;;;1043172;28;20021;-67
2022/05/28 00:16:14;;;;;;;4.13;1.73;;;18.80;99.90;;;;;;1042842;28;20051;-67
2022/05/28 00:16:46;;;;;;;3.53;1.77;;;18.80;99.90;;;;;;1043324;28;20119;-67
2022/05/28 00:17:16;;;;;;;2.33;1.35;;;18.80;99.90;;;;;;1042699;28;20013;-66
2022/05/28 00:17:48;;;;;;;2.67;1.63;;;18.70;99.90;;;;;;1042733;28;20029;-67
2022/05/28 00:18:19;;;;;;;3.80;1.60;;;18.70;99.90;;;;;;1042355;28;20021;-67
2022/05/28 00:18:51;;;;;;;4.57;1.90;;;18.70;99.90;;;;;;1042908;28;20108;-67
2022/05/28 00:19:22;;;;;;;4.60;1.65;;;18.70;99.90;;;;;;1042421;28;20013;-67
2022/05/28 00:19:54;;;;;;;4.10;1.70;;;18.70;99.90;;;;;;1042835;28;20021;-67
2022/05/28 00:20:26;;;;;;;3.95;1.77;;;18.70;99.90;;;;;;1042290;28;20024;-66
2022/05/28 00:20:56;;;;;;;3.35;1.60;;;18.70;99.90;;;;;;1042825;28;20013;-67
2022/05/28 00:21:27;;;;;;;4.67;1.77;;;18.70;99.90;;;;;;1042666;28;20009;-68
2022/05/28 00:21:57;;;;;;;3.37;1.53;;;18.70;99.90;;;;;;1042836;28;20013;-67
2022/05/28 00:22:28;;;;;;;2.73;1.47;;;18.70;99.90;;;;;;1042545;28;20536;-67
2022/05/28 00:22:58;;;;;;;4.17;1.47;;;18.70;99.90;;;;;;1043241;28;20071;-67
2022/05/28 00:23:29;;;;;;;7.07;1.83;;;18.70;99.90;;;;;;1042745;28;20482;-67
2022/05/28 00:24:00;;;;;;;3.80;1.60;;;18.70;99.90;;;;;;1043152;28;20017;-67
2022/05/28 00:24:31;;;;;;;5.70;1.80;;;18.70;99.90;;;;;;1042945;28;20041;-67
2022/05/28 00:25:01;;;;;;;3.47;1.73;;;18.70;99.90;;;;;;1043100;28;20384;-67
2022/05/28 00:25:32;;;;;;;4.53;1.70;;;18.70;99.90;;;;;;1042968;28;20021;-67
2022/05/28 00:26:04;;;;;;;4.53;2.13;;;18.70;99.90;;;;;;1043043;28;20016;-67
2022/05/28 00:26:34;;;;;;;4.38;1.30;;;18.60;99.90;;;;;;1042924;28;20013;-67
2022/05/28 00:27:05;;;;;;;4.80;1.70;;;18.60;99.90;;;;;;1043193;28;20341;-66
2022/05/28 00:27:36;;;;;;;5.63;2.67;;;18.60;99.90;;;;;;1043187;28;20029;-67
2022/05/28 00:28:07;;;;;;;4.28;1.60;;;18.60;99.90;;;;;;1042918;28;20025;-66
2022/05/28 00:28:38;;;;;;;2.70;1.53;;;18.60;99.90;;;;;;1042995;28;20100;-66
2022/05/28 00:29:08;;;;;;;3.90;1.83;;;18.60;99.90;;;;;;1043006;28;20103;-66
2022/05/28 00:29:39;;;;;;;3.40;1.70;;;18.50;99.90;;;;;;1042966;28;20025;-66
2022/05/28 00:30:13;;;;;;;4.83;1.87;;;18.50;99.90;;;;;;1043056;28;20480;-67
2022/05/28 00:30:43;;;;;;;7.07;1.90;;;18.50;99.90;;;;;;1042968;28;20029;-66
2022/05/28 00:31:14;;;;;;;5.07;1.93;;;18.50;99.90;;;;;;1042634;28;20044;-67
2022/05/28 00:31:44;;;;;;;5.63;1.70;;;18.50;99.90;;;;;;1042695;28;20020;-66
2022/05/28 00:32:15;;;;;;;3.63;1.40;;;18.50;99.90;;;;;;1042641;28;20710;-67
2022/05/28 00:32:46;;;;;;;3.00;1.50;;;18.50;99.90;;;;;;1042832;28;20057;-66
2022/05/28 00:33:17;;;;;;;2.55;1.33;;;18.50;99.90;;;;;;1042700;28;20052;-66
2022/05/28 00:33:48;;;;;;;7.43;2.00;;;18.50;99.90;;;;;;1042611;28;20043;-66
2022/05/28 00:34:18;;;;;;;3.83;1.63;;;18.50;99.90;;;;;;1042919;28;20468;-66
2022/05/28 00:34:49;;;;;;;3.30;1.40;;;18.50;99.90;;;;;;1043182;28;20512;-66
2022/05/28 00:35:20;;;;;;;3.33;1.77;;;18.50;99.90;;;;;;1042924;28;20052;-66
2022/05/28 00:35:50;;;;;;;4.63;1.50;;;18.50;99.90;;;;;;1043060;28;20033;-66
2022/05/28 00:36:21;;;;;;;5.17;1.80;;;18.50;99.90;;;;;;1042127;28;20063;-65
2022/05/28 00:36:51;;;;;;;6.40;1.67;;;18.50;99.90;;;;;;1042568;28;20040;-66
2022/05/28 00:37:23;;;;;;;3.70;1.70;;;18.50;99.90;;;;;;1042686;28;20037;-66
2022/05/28 00:37:53;;;;;;;4.03;1.58;;;18.50;99.90;;;;;;1042865;28;20025;-67
2022/05/28 00:38:24;;;;;;;4.57;1.90;;;18.50;99.90;;;;;;1042728;28;20044;-66
2022/05/28 00:38:55;;;;;;;3.80;1.48;;;18.50;99.90;;;;;;1043096;28;20036;-66
2022/05/28 00:39:25;;;;;;;3.73;1.40;;;18.50;99.90;;;;;;1042726;28;20025;-66
2022/05/28 00:39:56;;;;;;;4.37;1.60;;;18.50;99.90;;;;;;1043097;28;20036;-66
2022/05/28 00:40:27;;;;;;;3.47;1.73;;;18.50;99.90;;;;;;1042673;28;20055;-67
2022/05/28 00:40:59;;;;;;;4.35;1.55;;;18.50;99.90;;;;;;1043155;28;20518;-66
2022/05/28 00:41:29;;;;;;;3.42;2.00;;;18.50;99.90;;;;;;1042817;28;20049;-66
2022/05/28 00:42:00;;;;;;;3.87;1.50;;;18.50;99.90;;;;;;1043160;28;20029;-66
2022/05/28 00:42:30;;;;;;;2.70;1.20;;;18.50;99.90;;;;;;1042956;28;20028;-66
2022/05/28 00:43:03;;;;;;;3.93;1.97;;;18.50;99.90;;;;;;1043562;28;20040;-66
2022/05/28 00:43:36;;;;;;;5.18;1.92;;;18.50;99.90;;;;;;1043616;28;20040;-66
2022/05/28 00:44:07;;;;;;;2.88;1.48;;;18.50;99.90;;;;;;1043185;28;20103;-66
2022/05/28 00:44:38;;;;;;;5.20;1.70;;;18.50;99.90;;;;;;1039639;28;20022;-66
2022/05/28 00:45:10;;;;;;;4.37;2.00;;;18.50;99.90;;;;;;1039809;28;20136;-66
2022/05/28 00:45:41;;;;;;;4.53;1.60;;;18.50;99.90;;;;;;1039503;28;20029;-70
2022/05/28 00:46:23;;;;;;;2.50;1.35;;;18.50;99.90;;;;;;1039806;28;20026;-66
2022/05/28 00:46:56;;;;;;;2.80;1.27;;;18.50;99.90;;;;;;1039779;28;20033;-66
2022/05/28 00:47:27;;;;;;;3.50;1.63;;;18.50;99.90;;;;;;1039565;28;20032;-66
2022/05/28 00:48:03;;;;;;;5.25;1.80;;;18.50;99.90;;;;;;1039692;28;20108;-66
2022/05/28 00:48:35;;;;;;;4.03;1.38;;;18.50;99.90;;;;;;1039835;28;20099;-68
2022/05/28 00:49:09;;;;;;;4.60;1.67;;;18.50;99.90;;;;;;1039355;28;20025;-65
2022/05/28 00:49:41;;;;;;;3.70;1.73;;;18.50;99.90;;;;;;1039628;28;20025;-65
2022/05/28 00:50:12;;;;;;;3.60;1.35;;;18.50;99.90;;;;;;1039615;28;20443;-66
2022/05/28 00:50:44;;;;;;;4.00;1.70;;;18.50;99.90;;;;;;1039617;28;20025;-65
2022/05/28 00:51:32;;;;;;;4.97;1.77;;;18.50;99.90;;;;;;1039741;28;20024;-67
2022/05/28 00:52:03;;;;;;;;;;;18.50;99.90;;;;;;1042881;28;20078;-65
2022/05/28 00:52:34;;;;;;;5.05;1.77;;;18.40;99.90;;;;;;1043613;28;19935;-65
2022/05/28 00:53:06;;;;;;;5.07;1.88;;;18.40;99.90;;;;;;1043236;28;20028;-66
2022/05/28 00:53:37;;;;;;;3.65;1.83;;;18.40;99.90;;;;;;1043619;28;20020;-67
2022/05/28 00:54:09;;;;;;;4.40;1.43;;;18.40;99.90;;;;;;1043203;28;20032;-67
2022/05/28 00:54:44;;;;;;;4.25;2.03;;;18.40;99.90;;;;;;1043907;28;20821;-67
2022/05/28 00:55:16;;;;;;;3.45;1.77;;;18.40;99.90;;;;;;1043674;28;20025;-66
2022/05/28 00:55:46;;;;;;;5.53;1.95;;;18.30;99.90;;;;;;1043896;28;20067;-67
2022/05/28 00:56:17;;;;;;;6.93;2.30;;;18.30;99.90;;;;;;1043549;28;20096;-67
2022/05/28 00:56:49;;;;;;;6.23;2.33;;;18.30;99.90;;;;;;1043917;28;20060;-67
2022/05/28 00:57:21;;;;;;;3.38;1.30;;;18.20;99.90;;;;;;1043504;28;20972;-67
2022/05/28 00:57:52;;;;;;;4.50;1.98;;;18.20;99.90;;;;;;1043830;28;20105;-67
2022/05/28 00:58:22;;;;;;;5.50;1.73;;;18.20;99.90;;;;;;1043620;28;20021;-67
2022/05/28 00:58:54;;;;;;;4.63;1.90;;;18.20;99.90;;;;;;1043858;28;20067;-67
2022/05/28 00:59:24;;;;;;;5.15;1.70;;;18.20;99.90;;;;;;1043267;28;20399;-67
2022/05/28 00:59:55;;;;;;;3.47;1.70;;;18.10;99.90;;;;;;1043486;28;20449;-67
2022/05/28 01:00:25;;;;;;;4.63;1.80;;;18.10;99.90;;;;;;1038852;28;20025;-67
2022/05/28 01:00:57;;;;;;;4.80;1.80;;;18.10;99.90;;;;;;1039659;28;20025;-67
2022/05/28 01:01:31;;;;;;;3.85;1.85;;;18.10;99.90;;;;;;1039127;28;20488;-67
2022/05/28 01:02:27;;;;;;;4.28;1.75;;;18.10;99.90;;;;;;1043486;28;20057;-66
2022/05/28 01:03:34;;;;;;;4.50;1.73;;;18.10;99.90;;;;;;1043900;28;20055;-67
2022/05/28 01:04:30;;;;;;;4.40;2.00;;;18.00;99.90;;;;;;1039640;28;20080;-67
2022/05/28 01:05:23;;;;;;;4.38;1.73;;;18.00;99.90;;;;;;1039556;28;20481;-68
2022/05/28 01:06:16;;;;;;;4.15;1.95;;;18.00;99.90;;;;;;1039627;28;20568;-70
2022/05/28 01:06:57;;;;;;;4.22;1.98;;;18.00;99.90;;;;;;1036242;28;20404;-67
2022/05/28 01:07:38;;;;;;;3.65;1.73;;;18.10;99.90;;;;;;1039350;28;20017;-66
2022/05/28 01:08:17;;;;;;;3.63;1.50;;;18.10;99.90;;;;;;1041500;28;20030;-66
2022/05/28 01:09:01;;;;;;;3.50;1.77;;;18.00;99.90;;;;;;1043223;28;20342;-66
2022/05/28 01:10:01;;;;;;;4.72;1.92;;;18.00;99.90;;;;;;1043449;28;20356;-66
2022/05/28 01:10:38;;;;;;;4.15;1.90;;;18.00;99.90;;;;;;1043585;28;20096;-66
2022/05/28 01:11:37;;;;;;;7.97;1.90;;;18.00;99.90;;;;;;1043693;28;20484;-66
2022/05/28 01:12:16;;;;;;;3.70;1.45;;;18.10;99.90;;;;;;1043739;28;20547;-67
2022/05/28 01:12:52;;;;;;;8.18;2.40;;;18.10;99.90;;;;;;1043270;28;20631;-67
2022/05/28 01:13:33;;;;;;;4.85;1.80;;;18.10;99.90;;;;;;1043398;28;20522;-67
2022/05/28 01:14:16;;;;;;;3.13;1.35;;;18.10;99.90;;;;;;1043044;28;20548;-67
2022/05/28 01:14:49;;;;;;;3.95;1.75;;;18.10;99.90;;;;;;1043869;28;20055;-68
2022/05/28 01:15:36;;;;;;;2.35;1.58;;;18.10;99.90;;;;;;1043536;28;20029;-68
2022/05/28 01:16:19;;;;;;;4.53;1.67;;;18.10;99.90;;;;;;1043470;28;20023;-67
2022/05/28 01:17:25;;;;;;;3.95;1.50;;;18.10;99.90;;;;;;1043774;28;20025;-68
2022/05/28 01:18:11;;;;;;;2.55;1.40;;;18.20;99.90;;;;;;1043428;28;20067;-67
2022/05/28 01:19:19;;;;;;;2.42;1.17;;;18.20;99.90;;;;;;1043974;28;20364;-70
2022/05/28 01:20:12;;;;;;;4.07;1.73;;;18.20;99.90;;;;;;1040004;28;20021;-68
2022/05/28 01:20:48;;;;;;;3.53;1.40;;;18.20;99.90;;;;;;1043654;28;20425;-67
2022/05/28 01:22:08;;;;;;;4.30;1.70;;;18.20;99.90;;;;;;1043299;28;20033;-68
2022/05/28 01:22:54;;;;;;;4.80;1.70;;;18.20;99.90;;;;;;1038966;28;20763;-68
2022/05/28 01:23:34;;;;;;;3.28;1.40;;;18.20;99.90;;;;;;1038502;28;20022;-66
2022/05/28 01:24:50;;;;;;;3.22;1.52;;;18.30;99.90;;;;;;1039047;28;20692;-66
2022/05/28 01:25:48;;;;;;;5.03;1.42;;;18.30;99.90;;;;;;1034834;28;20096;-66
2022/05/28 01:27:03;;;;;;;3.25;1.27;;;18.30;99.90;;;;;;1038852;28;20017;-67
2022/05/28 01:27:47;;;;;;;3.70;1.40;;;18.30;99.90;;;;;;1038964;28;20037;-67
2022/05/28 01:28:22;;;;;;;3.42;1.42;;;18.30;99.90;;;;;;1038990;28;20108;-67
2022/05/28 01:28:58;;;;;;;3.55;1.52;;;18.30;99.90;;;;;;1039427;28;20438;-67
2022/05/28 01:29:36;;;;;;;2.00;1.38;;;18.30;99.90;;;;;;1039448;28;20014;-68
2022/05/28 01:30:10;;;;;;;6.40;1.58;;;18.30;99.90;;;;;;1039617;28;20420;-67
2022/05/28 01:30:44;;;;;;;3.53;1.52;;;18.30;99.90;;;;;;1039636;28;20043;-66
2022/05/28 01:31:16;;;;;;;4.72;1.67;;;18.30;99.90;;;;;;1039601;28;20021;-66
2022/05/28 01:31:47;;;;;;;3.45;1.95;;;18.30;99.90;;;;;;1039423;28;20627;-66
2022/05/28 01:32:19;;;;;;;3.75;1.40;;;18.30;99.90;;;;;;1039584;28;20092;-67
2022/05/28 01:32:52;;;;;;;4.38;1.65;;;18.30;99.90;;;;;;1039417;28;20089;-67
2022/05/28 01:33:24;;;;;;;3.90;1.50;;;18.30;99.90;;;;;;1039666;28;20014;-66
2022/05/28 01:33:55;;;;;;;3.42;1.33;;;18.30;99.90;;;;;;1039301;28;20017;-67
2022/05/28 01:34:29;;;;;;;4.35;1.83;;;18.30;99.90;;;;;;1039606;28;20017;-66
2022/05/28 01:35:05;;;;;;;3.72;1.42;;;18.30;99.90;;;;;;1038817;28;20017;-67
2022/05/28 01:35:37;;;;;;;3.30;1.40;;;18.30;99.90;;;;;;1039220;28;20059;-67
2022/05/28 01:36:11;;;;;;;3.60;1.70;;;18.30;99.90;;;;;;1039963;28;20380;-66
2022/05/28 01:36:41;;;;;;;4.40;1.60;;;18.30;99.90;;;;;;1042632;28;20020;-67
2022/05/28 01:37:14;;;;;;;3.83;1.50;;;18.30;99.90;;;;;;1038850;28;20143;-66
2022/05/28 01:37:47;;;;;;;3.80;1.73;;;18.30;99.90;;;;;;1039319;28;20388;-67
2022/05/28 01:38:19;;;;;;;3.38;1.17;;;18.30;99.90;;;;;;1038939;28;20014;-66
2022/05/28 01:38:53;;;;;;;4.93;1.70;;;18.30;99.90;;;;;;1039506;28;20254;-66
2022/05/28 01:39:24;;;;;;;2.42;1.13;;;18.30;99.90;;;;;;1039373;28;20016;-67
2022/05/28 01:39:57;;;;;;;4.53;1.98;;;18.30;99.90;;;;;;1039694;28;20065;-66
2022/05/28 01:40:28;;;;;;;3.25;1.63;;;18.30;99.90;;;;;;1039332;28;20108;-67
2022/05/28 01:41:00;;;;;;;5.10;1.98;;;18.30;99.90;;;;;;1039659;28;20022;-66
2022/05/28 01:41:31;;;;;;;3.47;1.65;;;18.30;99.90;;;;;;1039478;28;20014;-66
2022/05/28 01:42:02;;;;;;;3.78;1.15;;;18.30;99.90;;;;;;1039417;28;20037;-67
2022/05/28 01:42:36;;;;;;;4.22;1.73;;;18.30;99.90;;;;;;1039411;28;20017;-67
2022/05/28 01:43:09;;;;;;;3.90;1.42;;;18.30;99.90;;;;;;1039423;28;20026;-67
2022/05/28 01:43:45;;;;;;;4.05;1.67;;;18.30;99.90;;;;;;1039548;28;20017;-67
2022/05/28 01:44:16;;;;;;;2.80;1.10;;;18.30;99.90;;;;;;1038981;28;20131;-67
2022/05/28 01:44:49;;;;;;;4.45;2.30;;;18.30;99.90;;;;;;1039387;28;20020;-68
2022/05/28 01:45:25;;;;;;;1.77;1.00;;;18.30;99.90;;;;;;1039371;28;20386;-67
2022/05/28 01:45:56;;;;;;;2.60;1.20;;;18.30;99.90;;;;;;1039551;28;20476;-67
2022/05/28 01:46:28;;;;;;;5.03;1.90;;;18.30;99.90;;;;;;1039433;28;20472;-67
2022/05/28 01:46:59;;;;;;;3.10;1.40;;;18.30;99.90;;;;;;1039485;28;20061;-66
2022/05/28 01:47:31;;;;;;;1.67;1.15;;;18.30;99.90;;;;;;1039411;28;20018;-67
2022/05/28 01:48:05;;;;;;;7.90;1.90;;;18.30;99.90;;;;;;1038835;28;20025;-67
2022/05/28 01:48:37;;;;;;;6.20;2.30;;;18.30;99.90;;;;;;1039011;28;20124;-66
2022/05/28 01:49:11;;;;;;;3.28;1.48;;;18.30;99.90;;;;;;1039099;28;20095;-66
2022/05/28 01:49:43;;;;;;;5.22;1.75;;;18.30;99.90;;;;;;1038896;28;20029;-66
2022/05/28 01:50:18;;;;;;;4.22;1.63;;;18.30;99.90;;;;;;1041022;28;20105;-67
2022/05/28 01:50:51;;;;;;;3.88;1.77;;;18.20;99.90;;;;;;1043538;28;20040;-67
2022/05/28 01:51:24;;;;;;;3.05;1.30;;;18.20;99.90;;;;;;1043189;28;20120;-67
2022/05/28 01:51:59;;;;;;;3.30;1.48;;;18.20;99.90;;;;;;1043170;28;20365;-67
2022/05/28 01:52:31;;;;;;;3.95;1.75;;;18.20;99.90;;;;;;1043266;28;20021;-67
2022/05/28 01:53:05;;;;;;;5.03;1.80;;;18.20;99.90;;;;;;1043223;28;20032;-67
2022/05/28 01:54:34;;;;;;;3.00;1.38;;;18.20;99.90;;;;;;1043160;28;20090;-67
2022/05/28 01:55:07;;;;;;;3.63;1.55;;;18.20;99.90;;;;;;1043252;28;20072;-67
2022/05/28 01:55:43;;;;;;;3.83;1.38;;;18.20;99.90;;;;;;1042463;28;20047;-67
2022/05/28 01:56:15;;;;;;;5.63;2.35;;;18.20;99.90;;;;;;1039396;28;20104;-67
2022/05/28 01:56:49;;;;;;;4.32;1.52;;;18.20;99.90;;;;;;1039444;28;20029;-67
2022/05/28 01:57:19;;;;;;;4.65;1.40;;;18.20;99.90;;;;;;1039328;28;20496;-67
2022/05/28 01:57:50;;;;;;;5.47;1.70;;;18.20;99.90;;;;;;1039573;28;20464;-67
2022/05/28 01:58:21;;;;;;;4.43;1.97;;;18.20;99.90;;;;;;1039328;28;20081;-67
2022/05/28 01:58:52;;;;;;;3.77;1.40;;;18.20;99.90;;;;;;1039576;28;20806;-67
2022/05/28 01:59:25;;;;;;;3.83;1.50;;;18.20;99.90;;;;;;1040547;28;20022;-67
2022/05/28 01:59:56;;;;;;;3.35;1.77;;;18.20;99.90;;;;;;1043495;28;20263;-67
2022/05/28 02:00:28;;;;;;;4.38;1.58;;;18.20;99.90;;;;;;1043410;28;20021;-67
2022/05/28 02:00:59;;;;;;;2.38;1.33;;;18.20;99.90;;;;;;1043606;28;20017;-67
2022/05/28 02:01:30;;;;;;;4.53;1.75;;;18.20;99.90;;;;;;1043549;28;20025;-67
2022/05/28 02:02:04;;;;;;;3.60;1.30;;;18.20;99.90;;;;;;1043522;28;20021;-67
2022/05/28 02:02:34;;;;;;;4.25;1.80;;;18.20;99.90;;;;;;1043426;28;20086;-67
2022/05/28 02:03:05;;;;;;;2.70;1.33;;;18.20;99.90;;;;;;1043457;28;20029;-67
2022/05/28 02:03:40;;;;;;;4.47;1.60;;;18.20;99.90;;;;;;1041322;28;20017;-67
2022/05/28 02:04:11;;;;;;;3.90;1.30;;;18.20;99.90;;;;;;1039652;28;20033;-67
2022/05/28 02:04:45;;;;;;;3.95;1.27;;;18.20;99.90;;;;;;1043539;28;20427;-67
2022/05/28 02:05:15;;;;;;;3.72;1.40;;;18.20;99.90;;;;;;1043207;28;20045;-67
2022/05/28 02:05:46;;;;;;;4.67;1.47;;;18.20;99.90;;;;;;1043437;28;20025;-67
2022/05/28 02:06:17;;;;;;;5.30;1.70;;;18.20;99.90;;;;;;1043388;28;20014;-67
2022/05/28 02:06:48;;;;;;;3.28;1.33;;;18.20;99.90;;;;;;1043296;28;20072;-67
2022/05/28 02:07:19;;;;;;;3.83;1.77;;;18.20;99.90;;;;;;1039865;28;20070;-67
2022/05/28 02:07:50;;;;;;;4.07;1.65;;;18.20;99.90;;;;;;1039382;28;20033;-67
2022/05/28 02:08:20;;;;;;;4.23;1.90;;;18.20;99.90;;;;;;1039056;28;20473;-67
2022/05/28 02:08:52;;;;;;;4.30;1.57;;;18.20;99.90;;;;;;1039326;28;20018;-68
2022/05/28 02:09:29;;;;;;;4.43;1.52;;;18.20;99.90;;;;;;1039120;28;20116;-66
2022/05/28 02:10:08;;;;;;;2.78;1.38;;;18.20;99.90;;;;;;1041103;28;20921;-67
2022/05/28 02:10:45;;;;;;;1.80;1.30;;;18.20;99.90;;;;;;1043346;28;20017;-67
2022/05/28 02:11:22;;;;;;;4.50;1.63;;;18.10;99.90;;;;;;1043048;28;20372;-66
2022/05/28 02:12:08;;;;;;;4.70;1.63;;;18.20;99.90;;;;;;1038734;28;20025;-67
2022/05/28 02:12:47;;;;;;;5.88;1.50;;;18.10;99.90;;;;;;1038992;28;20021;-67
2022/05/28 02:13:27;;;;;;;3.80;1.63;;;18.10;99.90;;;;;;1042103;28;20031;-68
2022/05/28 02:14:28;;;;;;;2.67;1.10;;;18.10;99.90;;;;;;1043235;28;20025;-68
2022/05/28 02:15:28;;;;;;;3.58;1.63;;;18.10;99.90;;;;;;1043109;28;20083;-67
2022/05/28 02:16:11;;;;;;;3.85;1.80;;;18.10;99.90;;;;;;1038688;28;20095;-67
2022/05/28 02:16:57;;;;;;;4.90;1.50;;;18.10;99.90;;;;;;1039049;28;20071;-67
2022/05/28 02:17:46;;;;;;;4.82;1.67;;;18.10;99.90;;;;;;1040966;28;20423;-67
2022/05/28 02:18:42;;;;;;;4.30;1.33;;;18.00;99.90;;;;;;1042459;28;20021;-67
2022/05/28 02:19:21;;;;;;;5.10;1.42;;;18.00;99.90;;;;;;1041575;28;20127;-66
2022/05/28 02:20:33;;;;;;;4.47;1.60;;;18.00;99.90;;;;;;1043496;28;20030;-66
2022/05/28 02:21:12;;;;;;;4.80;1.55;;;18.00;99.90;;;;;;1042910;28;20579;-67
2022/05/28 02:21:49;;;;;;;6.30;1.55;;;18.00;99.90;;;;;;1043533;28;20028;-68
2022/05/28 02:22:42;;;;;;;2.75;1.42;;;18.00;99.90;;;;;;1043055;28;20017;-68
2022/05/28 02:23:44;;;;;;;5.00;1.70;;;18.00;99.90;;;;;;1043302;28;20029;-68
2022/05/28 02:24:28;;;;;;;5.45;1.60;;;18.00;99.90;;;;;;1040861;28;20024;-68
2022/05/28 02:25:04;;;;;;;2.55;1.20;;;18.00;99.90;;;;;;1038985;28;20530;-68
2022/05/28 02:25:43;;;;;;;4.05;1.40;;;18.00;99.90;;;;;;1038566;28;20741;-68
2022/05/28 02:26:20;;;;;;;4.63;1.30;;;18.00;99.90;;;;;;1039195;28;20018;-68
2022/05/28 02:26:57;;;;;;;3.97;1.50;;;18.00;99.90;;;;;;1038961;28;20080;-68
2022/05/28 02:27:29;;;;;;;3.60;1.58;;;18.00;99.90;;;;;;1038983;28;20026;-68
2022/05/28 02:28:03;;;;;;;5.35;1.98;;;18.00;99.90;;;;;;1038717;28;20032;-68
2022/05/28 02:28:35;;;;;;;2.85;1.75;;;17.90;99.90;;;;;;1040968;28;20467;-66
2022/05/28 02:29:06;;;;;;;3.25;1.00;;;17.90;99.90;;;;;;1042973;28;20029;-69
2022/05/28 02:29:37;;;;;;;5.85;1.92;;;17.90;99.90;;;;;;1042834;28;20068;-67
2022/05/28 02:30:10;;;;;;;6.22;1.83;;;17.90;99.90;;;;;;1043250;28;20035;-66
2022/05/28 02:31:05;;;;;;;4.03;1.65;;;17.90;99.90;;;;;;1043236;28;20017;-66
2022/05/28 02:31:35;;;;;;;8.00;2.83;;;17.90;99.90;;;;;;1043405;28;20044;-68
2022/05/28 02:32:21;;;;;;;6.33;1.80;;;17.90;99.90;;;;;;1043257;28;20033;-68
2022/05/28 02:33:03;;;;;;;3.50;1.25;;;17.90;99.90;;;;;;1042586;28;20025;-66
2022/05/28 02:33:34;;;;;;;3.97;1.67;;;17.90;99.90;;;;;;1043211;28;20035;-66
2022/05/28 02:34:04;;;;;;;3.17;1.47;;;17.80;99.90;;;;;;1042774;28;20112;-66
2022/05/28 02:34:36;;;;;;;5.07;1.50;;;17.80;99.90;;;;;;1043093;28;20017;-66
2022/05/28 02:35:08;;;;;;;4.63;1.98;;;17.80;99.90;;;;;;1042711;28;20074;-69
2022/05/28 02:35:39;;;;;;;3.55;1.52;;;17.80;99.90;;;;;;1043029;28;20028;-68
2022/05/28 02:36:12;;;;;;;5.70;1.70;;;17.80;99.90;;;;;;1042813;28;20018;-68
2022/05/28 02:36:42;;;;;;;4.60;1.40;;;17.70;99.90;;;;;;1042758;28;20025;-66
2022/05/28 02:37:15;;;;;;;4.40;1.50;;;17.70;99.90;;;;;;1043105;28;20029;-66
2022/05/28 02:37:46;;;;;;;3.70;1.90;;;17.70;99.90;;;;;;1042200;28;20056;-67
2022/05/28 02:38:17;;;;;;;4.20;1.83;;;17.70;99.90;;;;;;1039145;28;20018;-66
2022/05/28 02:38:48;;;;;;;3.85;1.75;;;17.70;99.90;;;;;;1039264;28;20021;-68
2022/05/28 02:39:18;;;;;;;6.35;1.95;;;17.70;99.90;;;;;;1039128;28;20025;-69
2022/05/28 02:39:49;;;;;;;3.83;1.50;;;17.70;99.90;;;;;;1043034;28;20013;-68
2022/05/28 02:40:20;;;;;;;5.67;2.17;;;17.70;99.90;;;;;;1043124;28;20108;-68
2022/05/28 02:40:52;;;;;;;3.63;1.60;;;17.70;99.90;;;;;;1043644;28;20017;-68
2022/05/28 02:41:22;;;;;;;2.75;1.52;;;17.70;99.90;;;;;;1042863;28;20448;-68
2022/05/28 02:41:53;;;;;;;5.63;1.80;;;17.70;99.90;;;;;;1043558;28;20417;-68
2022/05/28 02:42:24;;;;;;;5.77;1.67;;;17.70;99.90;;;;;;1043133;28;20049;-67
2022/05/28 02:42:55;;;;;;;4.15;1.50;;;17.70;99.90;;;;;;1043382;28;20449;-67
2022/05/28 02:43:26;;;;;;;6.60;1.70;;;17.70;99.90;;;;;;1043222;28;20468;-66
2022/05/28 02:43:57;;;;;;;4.85;1.75;;;17.70;99.90;;;;;;1043439;28;20013;-67
2022/05/28 02:44:28;;;;;;;4.00;1.70;;;17.70;99.90;;;;;;1042088;28;20018;-67
2022/05/28 02:44:59;;;;;;;3.97;1.55;;;17.70;99.90;;;;;;1043392;28;20020;-67
2022/05/28 02:45:30;;;;;;;4.47;1.48;;;17.70;99.90;;;;;;1043158;28;20360;-67
2022/05/28 02:46:01;;;;;;;4.73;1.83;;;17.70;99.90;;;;;;1043381;28;20353;-67
2022/05/28 02:46:32;;;;;;;4.75;1.65;;;17.70;99.90;;;;;;1043153;28;20143;-67
2022/05/28 02:47:03;;;;;;;4.00;1.70;;;17.70;99.90;;;;;;1043257;28;20337;-67
2022/05/28 02:47:34;;;;;;;5.60;1.90;;;17.70;99.90;;;;;;1043097;28;20698;-67
2022/05/28 02:48:05;;;;;;;3.83;1.93;;;17.70;99.90;;;;;;1043251;28;20473;-68
2022/05/28 02:48:36;;;;;;;5.80;1.65;;;17.70;99.90;;;;;;1040656;28;20818;-67
2022/05/28 02:49:07;;;;;;;4.03;1.65;;;17.70;99.90;;;;;;1039094;28;20108;-68
2022/05/28 02:49:38;;;;;;;4.23;1.80;;;17.70;99.90;;;;;;1039214;28;20116;-67
2022/05/28 02:50:09;;;;;;;4.33;1.67;;;17.70;99.90;;;;;;1043308;28;20100;-68
2022/05/28 02:50:39;;;;;;;6.50;1.90;;;17.70;99.90;;;;;;1043206;28;20610;-67
2022/05/28 02:51:13;;;;;;;3.10;1.20;;;17.70;99.90;;;;;;1043240;28;20017;-67
2022/05/28 02:51:43;;;;;;;3.40;1.38;;;17.70;99.90;;;;;;1043149;28;20052;-68
2022/05/28 02:52:14;;;;;;;6.30;1.90;;;17.70;99.90;;;;;;1043372;28;20095;-67
2022/05/28 02:52:44;;;;;;;4.60;1.43;;;17.70;99.90;;;;;;1043249;28;20017;-67
2022/05/28 02:53:15;;;;;;;3.83;1.40;;;17.70;99.90;;;;;;1043201;28;20742;-68
2022/05/28 02:53:48;;;;;;;3.00;1.27;;;17.70;99.90;;;;;;1043160;28;20017;-67
2022/05/28 02:54:19;;;;;;;3.42;1.80;;;17.70;99.90;;;;;;1043376;28;20031;-68
2022/05/28 02:54:50;;;;;;;4.35;1.80;;;17.70;99.90;;;;;;1043111;28;20629;-67
2022/05/28 02:55:20;;;;;;;4.13;1.53;;;17.70;99.90;;;;;;1042870;28;20516;-67
2022/05/28 02:55:51;;;;;;;4.13;1.60;;;17.70;99.90;;;;;;1046006;28;20020;-68
2022/05/28 02:56:22;;;;;;;4.00;1.30;;;17.70;99.90;;;;;;1046900;28;20017;-67
2022/05/28 02:56:54;;;;;;;4.95;1.67;;;17.60;99.90;;;;;;1042823;28;20093;-67
2022/05/28 02:57:25;;;;;;;4.90;1.88;;;17.60;99.90;;;;;;1042948;28;20021;-68
2022/05/28 02:57:55;;;;;;;4.53;1.47;;;17.60;99.90;;;;;;1042775;28;20021;-67
2022/05/28 02:58:27;;;;;;;2.47;1.40;;;17.60;99.90;;;;;;1043220;28;20025;-67
2022/05/28 02:58:57;;;;;;;5.15;1.88;;;17.60;99.90;;;;;;1043245;28;20405;-67
2022/05/28 02:59:28;;;;;;;4.87;1.63;;;17.60;99.90;;;;;;1043174;28;20384;-68
2022/05/28 02:59:58;;;;;;;4.00;1.50;;;17.60;99.90;;;;;;1040957;28;20026;-67
2022/05/28 03:00:29;;;;;;;4.13;1.43;;;17.60;99.90;;;;;;1042902;28;20059;-67
2022/05/28 03:01:03;;;;;;;4.33;1.93;;;17.60;99.90;;;;;;1042678;28;20036;-67
2022/05/28 03:01:34;;;;;;;2.58;1.13;;;17.60;99.90;;;;;;1042927;28;20092;-67
2022/05/28 03:02:05;;;;;;;7.07;2.05;;;17.60;99.90;;;;;;1042597;28;20400;-67